METAR Data
IDs: Format: Raw Decoded Include TAF

Data at: 0757 UTC 01 Aug 2021

EDLW 010750Z 23008KT 9999 BKN012 16/14 Q1009